createdAt,value
2023-01-05T00:02:44.528Z,99599.16
2023-01-05T00:07:47.407Z,99605.00
2023-01-05T00:13:07.702Z,99611.25
2023-01-05T00:18:32.586Z,99594.34
2023-01-05T00:23:35.452Z,99595.91
2023-01-05T00:28:38.213Z,99600.03
2023-01-05T00:33:42.389Z,99601.75
2023-01-05T00:38:45.223Z,99600.03
2023-01-05T00:43:48.004Z,99608.88
2023-01-05T00:48:52.067Z,99607.03
2023-01-05T00:53:54.818Z,99610.44
2023-01-05T00:58:57.581Z,99602.03
2023-01-05T01:04:02.132Z,99613.41
2023-01-05T01:09:05.323Z,99610.38
2023-01-05T01:14:08.938Z,99635.03
2023-01-05T01:19:16.836Z,99612.53
2023-01-05T01:24:22.922Z,99615.19
2023-01-05T01:29:25.959Z,99616.84
2023-01-05T01:34:30.371Z,99619.50
2023-01-05T01:39:34.197Z,99630.56
2023-01-05T01:44:56.400Z,99614.63
2023-01-05T01:50:22.621Z,99620.91
2023-01-05T01:55:26.967Z,99613.03
2023-01-05T02:00:29.993Z,99622.81
2023-01-05T02:05:37.142Z,99620.16
2023-01-05T02:10:56.346Z,99612.59
2023-01-05T02:16:07.202Z,99615.56
2023-01-05T02:21:22.209Z,99618.00
2023-01-05T02:27:11.367Z,99612.91
2023-01-05T02:32:23.278Z,99596.47
2023-01-05T02:37:34.660Z,99607.16
2023-01-05T02:42:40.088Z,99608.53
2023-01-05T02:47:45.646Z,99601.88
2023-01-05T02:52:57.363Z,99590.03
2023-01-05T02:58:05.057Z,99599.59
2023-01-05T03:03:16.526Z,99602.50
2023-01-05T03:08:29.083Z,99612.03
2023-01-05T03:13:43.799Z,99616.91
2023-01-05T03:19:14.428Z,99625.59
2023-01-05T03:24:35.510Z,99623.34
2023-01-05T03:29:56.765Z,99636.09
2023-01-05T03:35:24.030Z,99642.78
2023-01-05T03:40:30.807Z,99638.53
2023-01-05T03:45:37.743Z,99647.69
2023-01-05T03:50:42.004Z,99645.34
2023-01-05T03:55:48.863Z,99655.72
2023-01-05T04:00:51.877Z,99660.50
2023-01-05T04:05:58.757Z,99660.59
2023-01-05T04:11:15.788Z,99659.34
2023-01-05T04:16:23.913Z,99666.56
2023-01-05T04:21:32.133Z,99677.66
2023-01-05T04:26:35.009Z,99682.16
2023-01-05T04:31:38.956Z,99692.94
2023-01-05T04:36:44.572Z,99686.69
2023-01-05T04:41:51.841Z,99694.25
2023-01-05T04:46:56.798Z,99688.47
2023-01-05T04:52:01.108Z,99693.97
2023-01-05T04:57:05.263Z,99701.38
2023-01-05T05:02:10.091Z,99707.72
2023-01-05T05:07:16.949Z,99712.13
2023-01-05T05:12:20.640Z,99709.75
2023-01-05T05:17:26.536Z,99705.25
2023-01-05T05:22:31.128Z,99699.13
2023-01-05T05:27:36.561Z,99708.25
2023-01-05T05:32:43.955Z,99705.69
2023-01-05T05:37:52.941Z,99720.00
2023-01-05T05:42:59.254Z,99729.03
2023-01-05T05:48:02.316Z,99738.94
2023-01-05T05:53:06.454Z,99746.25
2023-01-05T05:58:09.244Z,99748.09
2023-01-05T06:03:12.107Z,99749.88
2023-01-05T06:08:16.561Z,99749.16
2023-01-05T06:13:19.764Z,99751.84
2023-01-05T06:18:22.676Z,99757.66
2023-01-05T06:23:26.792Z,99756.47
2023-01-05T06:28:29.548Z,99767.22
2023-01-05T06:33:32.321Z,99764.63
2023-01-05T06:38:37.056Z,99770.88
2023-01-05T06:43:39.895Z,99776.34
2023-01-05T06:48:42.663Z,99780.13
2023-01-05T06:53:46.779Z,99788.06
2023-01-05T06:58:49.526Z,99789.16
2023-01-05T07:03:52.310Z,99797.09
2023-01-05T07:08:56.511Z,99810.75
2023-01-05T07:13:59.422Z,99813.44
2023-01-05T07:19:02.272Z,99818.19
2023-01-05T07:24:06.912Z,99820.97
2023-01-05T07:29:09.700Z,99829.13
2023-01-05T07:34:12.803Z,99840.00
2023-01-05T07:39:17.619Z,99851.81
2023-01-05T07:44:20.372Z,99854.41
2023-01-05T07:49:23.129Z,99862.56
2023-01-05T07:54:27.815Z,99864.31
2023-01-05T07:59:30.587Z,99864.63
2023-01-05T08:04:33.538Z,99879.09
2023-01-05T08:09:55.275Z,99889.41
2023-01-05T08:14:58.124Z,99889.00
2023-01-05T08:20:00.912Z,99893.38
2023-01-05T08:25:05.726Z,99921.06
2023-01-05T08:30:09.728Z,99935.19
2023-01-05T08:35:12.913Z,99931.81
2023-01-05T08:40:17.273Z,99904.34
2023-01-05T08:45:20.243Z,99921.09
2023-01-05T08:50:23.096Z,99921.66
2023-01-05T08:55:27.384Z,99924.88
2023-01-05T09:00:30.171Z,99929.09
2023-01-05T09:05:33.379Z,99918.03
2023-01-05T09:10:37.619Z,99927.47
2023-01-05T09:15:40.369Z,99941.50
2023-01-05T09:20:43.151Z,99952.31
2023-01-05T09:25:47.261Z,99967.69
2023-01-05T09:30:51.018Z,99975.56
2023-01-05T09:35:55.061Z,99979.97
2023-01-05T09:41:04.195Z,99985.38
2023-01-05T09:46:12.791Z,99987.28
2023-01-05T09:51:15.796Z,99990.75
2023-01-05T09:57:07.540Z,99993.44
2023-01-05T10:01:53.534Z,99997.94
2023-01-05T10:07:00.903Z,100004.25
2023-01-05T10:12:33.705Z,100022.72
2023-01-05T10:17:41.642Z,100025.53
2023-01-05T10:22:54.973Z,100020.94
2023-01-05T10:28:10.240Z,100031.69
2023-01-05T10:33:32.018Z,100032.53
2023-01-05T10:38:53.132Z,100076.38
2023-01-05T10:44:14.986Z,100052.09
2023-01-05T10:49:21.753Z,100061.84
2023-01-05T10:54:36.179Z,100037.38
2023-01-05T10:59:57.444Z,100043.00
2023-01-05T11:05:06.822Z,100047.25
2023-01-05T11:10:22.026Z,100049.00
2023-01-05T11:15:26.455Z,100050.22
2023-01-05T11:20:30.194Z,100059.38
2023-01-05T11:25:34.140Z,100066.50
2023-01-05T11:30:39.388Z,100060.78
2023-01-05T11:35:45.433Z,100073.34
2023-01-05T11:40:48.288Z,100071.66
2023-01-05T11:45:55.396Z,100076.03
2023-01-05T11:50:58.916Z,100077.03
2023-01-05T11:56:03.280Z,100078.84
2023-01-05T12:01:49.275Z,100089.91
2023-01-05T12:07:12.614Z,100089.91
2023-01-05T12:12:51.086Z,100096.34
2023-01-05T12:18:11.428Z,100100.03
2023-01-05T12:23:50.441Z,100100.88
2023-01-05T12:31:02.816Z,100112.66
2023-01-05T12:35:18.291Z,100112.06
2023-01-05T12:40:37.717Z,100132.19
2023-01-05T12:46:05.799Z,100129.59
2023-01-05T12:51:17.246Z,100135.00
2023-01-05T12:56:27.159Z,100141.34
2023-01-05T13:01:35.122Z,100134.44
2023-01-05T13:06:43.665Z,100153.81
2023-01-05T13:11:51.043Z,100152.09
2023-01-05T13:17:00.264Z,100149.69
2023-01-05T13:22:12.704Z,100157.88
2023-01-05T13:27:17.627Z,100175.16
2023-01-05T13:32:36.680Z,100181.16
2023-01-05T13:37:58.940Z,100186.94
2023-01-05T13:43:35.694Z,100189.44
2023-01-05T13:49:04.125Z,100203.00
2023-01-05T13:54:13.872Z,100210.84
2023-01-05T13:59:34.999Z,100214.50
2023-01-05T14:04:47.624Z,100219.75
2023-01-05T14:09:55.785Z,100236.44
2023-01-05T14:15:01.457Z,100232.59
2023-01-05T14:20:04.630Z,100249.19
2023-01-05T14:25:43.995Z,100248.72
2023-01-05T14:30:49.690Z,100268.31
2023-01-05T14:35:52.553Z,100270.22
2023-01-05T14:40:56.808Z,100280.22
2023-01-05T14:46:06.289Z,100281.25
2023-01-05T14:51:20.266Z,100299.22
2023-01-05T14:56:25.777Z,100306.81
2023-01-05T15:01:36.937Z,100322.44
2023-01-05T15:06:57.597Z,100334.16
2023-01-05T15:12:15.720Z,100353.84
2023-01-05T15:17:48.600Z,100344.06
2023-01-05T15:23:07.099Z,100350.34
2023-01-05T15:28:34.159Z,100364.81
2023-01-05T15:33:43.711Z,100373.91
2023-01-05T15:38:48.363Z,100392.06
2023-01-05T15:43:52.077Z,100394.66
2023-01-05T15:48:56.410Z,100402.22
2023-01-05T15:54:01.067Z,100403.47
2023-01-05T15:59:04.982Z,100400.28
2023-01-05T16:04:14.433Z,100405.69
2023-01-05T16:09:27.918Z,100405.84
2023-01-05T16:14:38.302Z,100417.59
2023-01-05T16:19:45.754Z,100423.25
2023-01-05T16:24:58.959Z,100422.63
2023-01-05T16:30:17.022Z,100422.06
2023-01-05T16:35:33.165Z,100434.69
2023-01-05T16:40:37.505Z,100432.47
2023-01-05T16:45:40.359Z,100429.34
2023-01-05T16:51:00.885Z,100456.84
2023-01-05T16:56:03.657Z,100453.53
2023-01-05T17:01:18.146Z,100449.22
2023-01-05T17:06:26.869Z,100450.28
2023-01-05T17:11:35.589Z,100461.59
2023-01-05T17:16:38.448Z,100460.63
2023-01-05T17:21:44.977Z,100468.19
2023-01-05T17:26:47.948Z,100478.97
2023-01-05T17:31:50.755Z,100483.28
2023-01-05T17:36:58.212Z,100490.06
2023-01-05T17:42:14.870Z,100497.66
2023-01-05T17:47:17.649Z,100501.84
2023-01-05T17:52:21.859Z,100506.91
2023-01-05T17:57:24.717Z,100502.50
2023-01-05T18:02:27.501Z,100504.63
2023-01-05T18:07:32.345Z,100516.84
2023-01-05T18:12:35.478Z,100510.28
2023-01-05T18:17:39.273Z,100528.84
2023-01-05T18:22:43.736Z,100535.31
2023-01-05T18:27:46.758Z,100539.31
2023-01-05T18:32:49.627Z,100545.44
2023-01-05T18:43:02.660Z,100555.94
2023-01-05T18:48:05.737Z,100550.53
2023-01-05T18:53:09.986Z,100550.53
2023-01-05T18:58:12.974Z,100554.81
2023-01-05T19:03:15.809Z,100554.50
2023-01-05T19:08:19.960Z,100557.84
2023-01-05T19:13:22.723Z,100566.81
2023-01-05T19:18:26.634Z,100573.06
2023-01-05T19:23:31.130Z,100575.97
2023-01-05T19:28:36.863Z,100576.28
2023-01-05T19:33:40.620Z,100576.94
2023-01-05T19:38:45.703Z,100583.31
2023-01-05T19:43:49.569Z,100580.94
2023-01-05T19:48:52.721Z,100586.88
2023-01-05T19:53:58.873Z,100579.06
2023-01-05T19:59:04.460Z,100590.50
2023-01-05T20:04:07.313Z,100589.31
2023-01-05T20:09:14.504Z,100589.31
2023-01-05T20:14:19.268Z,100590.38
2023-01-05T20:19:23.523Z,100605.72
2023-01-05T20:24:29.626Z,100609.22
2023-01-05T20:29:33.028Z,100605.72
2023-01-05T20:34:39.323Z,100608.34
2023-01-05T20:39:43.749Z,100610.06
2023-01-05T20:44:49.829Z,100616.22
2023-01-05T20:49:53.273Z,100617.94
2023-01-05T20:54:57.661Z,100614.63
2023-01-05T21:00:00.510Z,100619.22
2023-01-05T21:05:03.727Z,100618.38
2023-01-05T21:10:09.405Z,100620.19
2023-01-05T21:15:12.277Z,100627.44
2023-01-05T21:20:15.055Z,100638.75
2023-01-05T21:25:19.395Z,100632.75
2023-01-05T21:30:22.716Z,100637.31
2023-01-05T21:35:25.505Z,100630.91
2023-01-05T21:40:30.186Z,100634.47
2023-01-05T21:45:34.562Z,100630.78
2023-01-05T21:50:55.045Z,100627.81
2023-01-05T21:56:16.937Z,100628.53
2023-01-05T22:01:19.983Z,100624.63
2023-01-05T22:06:22.767Z,100620.63
2023-01-05T22:11:27.001Z,100626.44
2023-01-05T22:16:29.830Z,100631.97
2023-01-05T22:21:33.774Z,100638.38
2023-01-05T22:26:38.003Z,100631.97
2023-01-05T22:31:41.105Z,100640.50
2023-01-05T22:36:44.235Z,100632.44
2023-01-05T22:41:50.529Z,100636.66
2023-01-05T22:46:53.296Z,100639.09
2023-01-05T22:51:56.109Z,100643.78
2023-01-05T22:57:00.348Z,100641.63
2023-01-05T23:02:03.286Z,100638.16
2023-01-05T23:07:06.197Z,100630.91
2023-01-05T23:12:12.021Z,100638.38
2023-01-05T23:17:15.471Z,100635.44
2023-01-05T23:22:18.387Z,100627.44
2023-01-05T23:27:22.661Z,100627.75
2023-01-05T23:32:25.538Z,100631.25
2023-01-05T23:37:30.553Z,100622.25
2023-01-05T23:42:51.176Z,100628.53
2023-01-05T23:47:53.925Z,100617.94
2023-01-05T23:52:56.916Z,100601.50
2023-01-05T23:58:01.072Z,100601.91
